Time;durP1;ratioP1;P1;durP2;ratioP2;P2;SDS_P1;SDS_P2;PMS_P1;PMS_P2;Temp;Humidity;BMP_temperature;BMP_pressure;BME280_temperature;BME280_humidity;BME280_pressure;Samples;Min_cycle;Max_cycle;Signal;HPM_P1;HPM_P2
2021/05/05 00:00:12;;;;;;;0.40;0.40;;;;;;;7.58;100.00;95270.25;5055841;28;20226;-66
2021/05/05 00:02:38;;;;;;;0.50;0.50;;;;;;;7.85;100.00;95262.59;5057040;28;20947;-64
2021/05/05 00:05:03;;;;;;;0.60;0.60;;;;;;;8.05;100.00;95250.66;5067410;28;20550;-67
2021/05/05 00:07:29;;;;;;;1.80;0.57;;;;;;;8.07;100.00;95243.38;5074799;28;20477;-68
2021/05/05 00:09:54;;;;;;;0.60;0.50;;;;;;;8.27;100.00;95240.31;5061683;28;20209;-67
2021/05/05 00:12:20;;;;;;;0.50;0.50;;;;;;;8.34;100.00;95230.47;5069444;28;20177;-64
2021/05/05 00:14:45;;;;;;;0.57;0.50;;;;;;;8.10;100.00;95234.25;5071391;28;20175;-65
2021/05/05 00:17:11;;;;;;;0.93;0.77;;;;;;;8.35;99.73;95234.69;5066677;28;20638;-64
2021/05/05 00:19:37;;;;;;;0.63;0.50;;;;;;;8.32;97.84;95238.56;5075698;28;20198;-65
2021/05/05 00:22:02;;;;;;;0.90;0.67;;;;;;;8.21;99.47;95251.69;5067009;28;20428;-64
2021/05/05 00:24:28;;;;;;;0.93;0.70;;;;;;;7.67;100.00;95254.97;5061962;28;20544;-61
2021/05/05 00:26:54;;;;;;;1.07;0.97;;;;;;;7.67;100.00;95262.81;5073000;28;20176;-67
2021/05/05 00:29:19;;;;;;;0.70;0.57;;;;;;;7.60;100.00;95257.72;5055348;28;20440;-66
2021/05/05 00:31:44;;;;;;;1.27;1.17;;;;;;;7.43;100.00;95264.72;5056510;28;20180;-64
2021/05/05 00:34:10;;;;;;;0.70;0.70;;;;;;;7.60;100.00;95257.72;5055515;28;20176;-68
2021/05/05 00:36:35;;;;;;;0.73;0.67;;;;;;;7.20;100.00;95255.16;5056504;28;20167;-64
2021/05/05 00:39:02;;;;;;;0.67;0.67;;;;;;;7.06;100.00;95251.22;5056024;28;20195;-67
2021/05/05 00:41:27;;;;;;;4.20;0.83;;;;;;;7.44;100.00;95245.41;5056328;28;20196;-63
2021/05/05 00:43:53;;;;;;;1.17;1.07;;;;;;;7.02;100.00;95231.00;5056081;28;20432;-66
2021/05/05 00:46:18;;;;;;;1.20;0.90;;;;;;;6.95;100.00;95232.97;5055061;28;20199;-63
2021/05/05 00:48:44;;;;;;;0.50;0.50;;;;;;;7.57;100.00;95224.22;5071247;28;20193;-67
2021/05/05 00:51:09;;;;;;;3.60;0.90;;;;;;;7.32;100.00;95215.16;5073861;28;20183;-67
2021/05/05 00:53:35;;;;;;;0.50;0.50;;;;;;;6.80;100.00;95222.22;5074266;28;20203;-67
2021/05/05 00:56:01;;;;;;;1.00;0.70;;;;;;;7.11;100.00;95214.75;5074950;28;20164;-64
2021/05/05 00:58:27;;;;;;;1.40;1.17;;;;;;;7.14;100.00;95213.47;5074474;28;20759;-67
2021/05/05 01:00:52;;;;;;;2.40;0.90;;;;;;;7.39;100.00;95193.06;5075076;28;20213;-64
2021/05/05 01:03:20;;;;;;;5.23;1.63;;;;;;;7.51;100.00;95187.78;5074860;28;20424;-64
2021/05/05 01:05:46;;;;;;;1.27;0.60;;;;;;;7.54;100.00;95190.72;5074938;28;20188;-68
2021/05/05 01:08:15;;;;;;;3.77;0.80;;;;;;;7.58;100.00;95183.19;5068692;28;20530;-63
2021/05/05 01:10:41;;;;;;;1.50;0.73;;;;;;;7.06;100.00;95174.69;5054777;28;20182;-68
2021/05/05 01:13:07;;;;;;;1.10;1.10;;;;;;;6.93;100.00;95162.72;5054873;28;20404;-68
2021/05/05 01:15:32;;;;;;;1.77;1.00;;;;;;;6.93;100.00;95162.72;5054737;28;20413;-64
2021/05/05 01:17:57;;;;;;;3.33;1.10;;;;;;;7.11;100.00;95174.78;5054254;28;20402;-64
2021/05/05 01:20:27;;;;;;;0.67;0.67;;;;;;;6.94;100.00;95186.97;5053294;28;20179;-63
2021/05/05 01:22:53;;;;;;;0.67;0.60;;;;;;;7.45;100.00;95193.94;5059606;28;20209;-63
2021/05/05 01:25:18;;;;;;;2.03;0.90;;;;;;;7.39;100.00;95182.63;5074413;28;20491;-67
2021/05/05 01:27:44;;;;;;;1.90;1.60;;;;;;;7.55;100.00;95184.47;5072703;28;20162;-67
2021/05/05 01:30:12;;;;;;;0.97;0.70;;;;;;;7.66;100.00;95185.44;5070639;28;20195;-68
2021/05/05 01:32:38;;;;;;;3.87;0.90;;;;;;;7.71;100.00;95188.13;5073330;28;20414;-64
2021/05/05 01:35:05;;;;;;;2.60;0.70;;;;;;;7.74;100.00;95188.44;5054421;28;20404;-67
2021/05/05 01:37:31;;;;;;;0.87;0.87;;;;;;;7.00;100.00;95180.84;5053976;28;20531;-67
2021/05/05 01:39:57;;;;;;;2.80;1.37;;;;;;;7.06;100.00;95183.34;5057551;28;20520;-68
2021/05/05 01:42:22;;;;;;;0.90;0.80;;;;;;;6.91;100.00;95180.41;5063335;28;20612;-64
2021/05/05 01:44:48;;;;;;;1.60;0.87;;;;;;;6.88;100.00;95187.94;5054882;28;20747;-64
2021/05/05 01:47:14;;;;;;;1.40;0.97;;;;;;;7.08;100.00;95186.47;5058874;28;20180;-67
2021/05/05 01:49:44;;;;;;;1.70;1.60;;;;;;;6.87;100.00;95178.50;5073816;28;20184;-67
2021/05/05 01:52:09;;;;;;;1.10;1.00;;;;;;;7.19;100.00;95183.03;5059514;28;20176;-64
2021/05/05 01:54:36;;;;;;;3.40;1.17;;;;;;;7.30;100.00;95178.81;5072240;28;20418;-67
2021/05/05 01:57:32;;;;;;;1.33;1.23;;;;;;;7.23;100.00;95172.91;5073441;28;20173;-65
2021/05/05 01:59:59;;;;;;;1.10;1.10;;;;;;;7.47;100.00;95171.78;5067969;28;20435;-63
2021/05/05 02:02:28;;;;;;;1.43;0.80;;;;;;;7.03;100.00;95182.97;5053784;28;20408;-64
2021/05/05 02:04:54;;;;;;;2.67;1.00;;;;;;;7.21;100.00;95180.97;5054812;28;20835;-67
2021/05/05 02:07:19;;;;;;;1.33;1.10;;;;;;;6.96;100.00;95177.91;5053274;28;20420;-67
2021/05/05 02:09:45;;;;;;;1.77;0.90;;;;;;;6.98;100.00;95169.84;5054686;28;20671;-67
2021/05/05 02:12:12;;;;;;;0.73;0.73;;;;;;;6.80;100.00;95170.00;5054074;28;20175;-64
2021/05/05 02:14:38;;;;;;;1.33;1.00;;;;;;;7.49;100.00;95167.13;5054697;28;20646;-63
2021/05/05 02:17:03;;;;;;;1.03;1.03;;;;;;;7.54;100.00;95161.97;5069562;28;20516;-67
2021/05/05 02:19:28;;;;;;;1.00;0.90;;;;;;;7.71;100.00;95167.22;5072598;28;20228;-67
2021/05/05 02:21:54;;;;;;;1.70;0.93;;;;;;;8.11;100.00;95168.66;5052525;28;20638;-64
2021/05/05 02:24:19;;;;;;;1.37;0.77;;;;;;;7.75;100.00;95170.94;5053439;28;20167;-67
2021/05/05 02:26:45;;;;;;;2.70;1.13;;;;;;;7.75;100.00;95165.72;5054444;28;20203;-67
2021/05/05 02:29:10;;;;;;;1.00;0.73;;;;;;;7.85;100.00;95158.00;5052992;28;20190;-64
2021/05/05 02:31:36;;;;;;;1.43;0.73;;;;;;;7.45;100.00;95167.81;5069148;28;20179;-64
2021/05/05 02:34:01;;;;;;;1.57;0.80;;;;;;;7.35;100.00;95172.88;5073602;28;20728;-63
2021/05/05 02:36:31;;;;;;;0.77;0.77;;;;;;;7.24;100.00;95177.13;5054509;28;20250;-64
2021/05/05 02:38:57;;;;;;;0.73;0.73;;;;;;;7.57;100.00;95174.59;5052854;28;20185;-64
2021/05/05 02:41:23;;;;;;;2.90;0.70;;;;;;;7.54;100.00;95179.47;5054323;28;20448;-64
2021/05/05 02:43:49;;;;;;;1.37;0.70;;;;;;;7.56;100.00;95187.84;5053450;28;20462;-67
2021/05/05 02:46:15;;;;;;;0.40;0.40;;;;;;;7.08;100.00;95193.53;5054262;28;20956;-67
2021/05/05 02:48:40;;;;;;;2.60;0.73;;;;;;;6.88;100.00;95200.97;5052712;28;20200;-67
2021/05/05 02:51:05;;;;;;;0.60;0.60;;;;;;;7.08;100.00;95190.94;5071037;28;20188;-67
2021/05/05 02:53:31;;;;;;;1.40;1.30;;;;;;;6.81;100.00;95201.09;5073229;28;20254;-63
2021/05/05 02:55:56;;;;;;;2.80;0.93;;;;;;;6.33;100.00;95202.41;5058353;28;20171;-67
2021/05/05 02:58:21;;;;;;;1.93;1.17;;;;;;;6.62;100.00;95202.28;5072826;28;20167;-67
2021/05/05 03:00:47;;;;;;;1.37;0.93;;;;;;;6.69;100.00;95196.91;5063197;28;20199;-64
2021/05/05 03:03:12;;;;;;;1.17;0.87;;;;;;;6.92;100.00;95191.66;5054234;28;20234;-67
2021/05/05 03:05:37;;;;;;;1.20;1.03;;;;;;;6.87;100.00;95196.75;5053222;28;20217;-67
2021/05/05 03:08:03;;;;;;;1.30;1.10;;;;;;;7.09;100.00;95182.84;5061800;28;20524;-67
2021/05/05 03:10:29;;;;;;;1.20;1.10;;;;;;;6.69;100.00;95179.44;5073211;28;20185;-64
2021/05/05 03:12:54;;;;;;;1.10;1.00;;;;;;;6.91;100.00;95182.22;5065168;28;20203;-64
2021/05/05 03:15:19;;;;;;;1.17;0.90;;;;;;;6.63;100.00;95182.19;5056804;28;20207;-67
2021/05/05 03:17:44;;;;;;;1.00;0.73;;;;;;;6.87;100.00;95176.69;5057550;28;20204;-64
2021/05/05 03:20:12;;;;;;;1.07;1.00;;;;;;;7.13;100.00;95180.56;5056863;28;20697;-64
2021/05/05 03:22:38;;;;;;;1.93;1.03;;;;;;;7.15;100.00;95176.72;5064418;28;20181;-64
2021/05/05 03:25:08;;;;;;;0.97;0.97;;;;;;;7.55;100.00;95173.22;5072230;28;21033;-64
2021/05/05 03:27:33;;;;;;;1.07;0.80;;;;;;;7.40;100.00;95183.41;5056340;28;20650;-64
2021/05/05 03:30:00;;;;;;;2.67;1.40;;;;;;;7.37;100.00;95178.66;5056642;28;20471;-67
2021/05/05 03:32:25;;;;;;;2.13;1.20;;;;;;;7.46;100.00;95183.28;5056844;28;20173;-67
2021/05/05 03:34:50;;;;;;;3.57;1.10;;;;;;;6.95;100.00;95194.59;5056582;28;20495;-67
2021/05/05 03:37:16;;;;;;;1.37;1.13;;;;;;;7.48;100.00;95193.47;5056360;28;20589;-64
2021/05/05 03:39:41;;;;;;;3.23;1.20;;;;;;;7.56;100.00;95195.69;5056344;28;20195;-67
2021/05/05 03:42:07;;;;;;;1.33;1.13;;;;;;;7.44;100.00;95200.19;5056535;28;20192;-64
2021/05/05 03:44:33;;;;;;;1.80;0.87;;;;;;;7.37;100.00;95204.78;5056599;28;20242;-64
2021/05/05 03:46:58;;;;;;;1.67;1.33;;;;;;;7.47;100.00;95195.28;5072597;28;20230;-64
2021/05/05 03:49:23;;;;;;;2.97;1.03;;;;;;;7.37;100.00;95195.13;5076197;28;20189;-67
2021/05/05 03:51:49;;;;;;;1.17;1.07;;;;;;;7.35;100.00;95197.19;5076127;28;20273;-67
2021/05/05 03:54:16;;;;;;;0.80;0.80;;;;;;;7.24;100.00;95195.41;5076422;28;20166;-64
2021/05/05 03:56:42;;;;;;;1.77;1.30;;;;;;;7.34;100.00;95194.81;5076499;28;20196;-67
2021/05/05 03:59:07;;;;;;;1.27;0.73;;;;;;;7.39;100.00;95205.34;5075717;28;20463;-64
2021/05/05 04:01:33;;;;;;;2.20;1.53;;;;;;;7.35;100.00;95202.41;5059080;28;20176;-65
2021/05/05 04:03:58;;;;;;;0.97;0.80;;;;;;;7.36;100.00;95198.75;5059627;28;20165;-64
2021/05/05 04:06:24;;;;;;;1.57;0.87;;;;;;;7.19;100.00;95197.94;5055876;28;20272;-67
2021/05/05 04:08:49;;;;;;;1.20;0.90;;;;;;;6.94;100.00;95200.84;5062816;28;20676;-64
2021/05/05 04:11:14;;;;;;;0.90;0.90;;;;;;;7.39;100.00;95198.31;5076108;28;20565;-67
2021/05/05 04:13:40;;;;;;;1.60;0.70;;;;;;;7.32;100.00;95200.25;5069959;28;20177;-64
2021/05/05 04:16:05;;;;;;;0.93;0.73;;;;;;;6.72;100.00;95207.69;5061511;28;20196;-64
2021/05/05 04:18:31;;;;;;;1.33;0.90;;;;;;;6.97;100.00;95213.44;5068009;28;20643;-67
2021/05/05 04:21:01;;;;;;;1.23;0.80;;;;;;;6.69;100.00;95215.19;5074413;28;20254;-64
2021/05/05 04:23:27;;;;;;;2.93;0.90;;;;;;;6.91;100.00;95219.59;5074376;28;20595;-64
2021/05/05 04:25:53;;;;;;;1.33;0.73;;;;;;;7.03;100.00;95217.72;5075510;28;20482;-64
2021/05/05 04:28:18;;;;;;;1.10;1.00;;;;;;;7.24;100.00;95226.75;5074587;28;20168;-64
2021/05/05 04:30:44;;;;;;;1.00;0.67;;;;;;;7.32;100.00;95226.38;5074659;28;20603;-67
2021/05/05 04:33:10;;;;;;;0.70;0.70;;;;;;;7.21;100.00;95224.63;5072999;28;20183;-67
2021/05/05 04:35:35;;;;;;;0.50;0.50;;;;;;;6.92;100.00;95236.06;5075427;28;20191;-67
2021/05/05 04:38:00;;;;;;;0.73;0.60;;;;;;;6.65;100.00;95246.16;5069200;28;20450;-64
2021/05/05 04:40:26;;;;;;;2.73;0.90;;;;;;;7.10;100.00;95246.34;5055342;28;20193;-64
2021/05/05 04:42:51;;;;;;;0.67;0.67;;;;;;;6.79;100.00;95262.41;5056472;28;20170;-67
2021/05/05 04:45:17;;;;;;;0.60;0.60;;;;;;;6.76;100.00;95268.06;5055282;28;20226;-65
2021/05/05 04:47:42;;;;;;;0.87;0.87;;;;;;;6.70;100.00;95275.00;5055429;28;20169;-67
2021/05/05 04:50:10;;;;;;;1.33;0.67;;;;;;;6.48;100.00;95265.34;5074937;28;20285;-67
2021/05/05 04:52:37;;;;;;;0.70;0.70;;;;;;;6.19;100.00;95270.47;5074346;28;20163;-64
2021/05/05 04:55:03;;;;;;;1.17;0.87;;;;;;;6.29;100.00;95275.09;5074396;28;20931;-64
2021/05/05 04:57:29;;;;;;;0.97;0.70;;;;;;;6.48;100.00;95260.16;5074734;28;20405;-65
2021/05/05 04:59:54;;;;;;;1.53;1.30;;;;;;;6.38;100.00;95257.31;5055523;28;20455;-65
2021/05/05 05:02:20;;;;;;;1.20;0.80;;;;;;;6.35;100.00;95287.25;5072638;28;20180;-67
2021/05/05 05:04:45;;;;;;;1.43;1.30;;;;;;;6.25;100.00;95277.38;5057275;28;20173;-67
2021/05/05 05:07:10;;;;;;;1.73;0.80;;;;;;;6.04;100.00;95290.94;5054501;28;20537;-65
2021/05/05 05:09:36;;;;;;;1.30;1.03;;;;;;;6.02;100.00;95287.75;5070013;28;20198;-64
2021/05/05 05:12:02;;;;;;;0.83;0.80;;;;;;;6.26;100.00;95288.59;5074821;28;20622;-67
2021/05/05 05:14:27;;;;;;;1.90;0.93;;;;;;;6.27;100.00;95266.69;5072972;28;20259;-68
2021/05/05 05:16:53;;;;;;;2.63;1.00;;;;;;;6.00;100.00;95279.38;5073415;28;20835;-64
2021/05/05 05:19:19;;;;;;;0.70;0.70;;;;;;;6.03;100.00;95299.00;5062159;28;20192;-68
2021/05/05 05:21:44;;;;;;;0.90;0.90;;;;;;;5.90;100.00;95297.38;5054588;28;20888;-64
2021/05/05 05:24:10;;;;;;;0.80;0.60;;;;;;;6.08;100.00;95292.09;5064729;28;20179;-68
2021/05/05 05:26:36;;;;;;;0.90;0.90;;;;;;;6.38;100.00;95284.19;5074429;28;20201;-68
2021/05/05 05:29:01;;;;;;;1.23;0.90;;;;;;;6.41;100.00;95299.41;5065436;28;20203;-64
2021/05/05 05:31:27;;;;;;;0.93;0.70;;;;;;;6.35;100.00;95291.66;5062936;28;20246;-65
2021/05/05 05:33:53;;;;;;;1.07;1.07;;;;;;;6.66;100.00;95296.56;5064379;28;20179;-64
2021/05/05 05:36:19;;;;;;;1.30;1.20;;;;;;;6.66;100.00;95307.00;5053750;28;20406;-67
2021/05/05 05:38:44;;;;;;;1.53;1.17;;;;;;;6.65;100.00;95311.41;5058631;28;20520;-68
2021/05/05 05:41:10;;;;;;;2.23;1.03;;;;;;;6.82;100.00;95311.53;5074305;28;20164;-68
2021/05/05 05:43:35;;;;;;;2.00;1.30;;;;;;;6.58;100.00;95321.16;5070723;28;20648;-68
2021/05/05 05:46:01;;;;;;;2.10;1.00;;;;;;;6.51;100.00;95320.50;5054189;28;20199;-67
2021/05/05 05:48:26;;;;;;;2.87;1.97;;;;;;;7.04;100.00;95320.38;5054898;28;20226;-68
2021/05/05 05:50:51;;;;;;;3.17;1.60;;;;;;;6.73;100.00;95318.09;5074069;28;20215;-68
2021/05/05 05:53:17;;;;;;;3.47;1.67;;;;;;;6.66;100.00;95317.44;5072791;28;20251;-66
2021/05/05 05:55:44;;;;;;;4.10;1.30;;;;;;;7.12;100.00;95314.81;5072406;28;20526;-68
2021/05/05 05:58:10;;;;;;;1.70;1.47;;;;;;;7.02;100.00;95309.34;5072661;28;20176;-64
2021/05/05 06:00:36;;;;;;;1.50;1.40;;;;;;;6.96;100.00;95315.47;5055451;28;20474;-65
2021/05/05 06:03:04;;;;;;;2.60;1.03;;;;;;;6.98;100.00;95324.69;5053784;28;20435;-68
2021/05/05 06:05:30;;;;;;;1.40;1.30;;;;;;;7.00;100.00;95329.66;5070332;28;20206;-64
2021/05/05 06:07:56;;;;;;;2.67;1.13;;;;;;;6.75;100.00;95334.34;5073311;28;20909;-68
2021/05/05 06:10:22;;;;;;;3.00;1.70;;;;;;;7.03;100.00;95330.00;5058263;28;20440;-68
2021/05/05 06:12:47;;;;;;;4.70;1.60;;;;;;;7.00;100.00;95334.91;5052622;28;20203;-64
2021/05/05 06:15:12;;;;;;;3.50;1.37;;;;;;;6.91;100.00;95333.66;5054584;28;20181;-68
2021/05/05 06:17:38;;;;;;;1.50;1.20;;;;;;;7.10;100.00;95337.75;5053169;28;20180;-68
2021/05/05 06:20:06;;;;;;;4.00;1.20;;;;;;;6.69;100.00;95333.44;5054466;28;20335;-64
2021/05/05 06:22:31;;;;;;;1.63;1.40;;;;;;;6.71;100.00;95341.84;5052295;28;20180;-68
2021/05/05 06:24:57;;;;;;;4.13;1.60;;;;;;;6.66;100.00;95349.56;5063165;28;20450;-64
2021/05/05 06:27:22;;;;;;;3.37;1.70;;;;;;;6.69;100.00;95359.53;5071967;28;20644;-67
2021/05/05 06:29:48;;;;;;;3.50;1.87;;;;;;;6.72;100.00;95356.47;5071093;28;20195;-64
2021/05/05 06:32:15;;;;;;;4.40;1.93;;;;;;;6.60;100.00;95362.69;5073348;28;20169;-64
2021/05/05 06:34:40;;;;;;;4.97;1.60;;;;;;;6.35;100.00;95372.53;5071647;28;20236;-64
2021/05/05 06:37:06;;;;;;;3.53;2.00;;;;;;;6.57;100.00;95369.16;5072995;28;20405;-64
2021/05/05 06:39:32;;;;;;;1.90;1.80;;;;;;;6.39;100.00;95371.84;5057272;28;20238;-68
2021/05/05 06:41:57;;;;;;;5.27;2.23;;;;;;;6.86;100.00;95376.13;5053331;28;20169;-68
2021/05/05 06:44:23;;;;;;;2.60;1.97;;;;;;;6.84;100.00;95380.78;5062074;28;20174;-67
2021/05/05 06:46:51;;;;;;;2.57;1.87;;;;;;;6.70;100.00;95381.22;5072995;28;20802;-68
2021/05/05 06:49:16;;;;;;;2.17;1.80;;;;;;;6.66;100.00;95383.47;5063274;28;20201;-63
2021/05/05 06:51:42;;;;;;;4.50;2.30;;;;;;;6.78;100.00;95392.09;5057194;28;20918;-64
2021/05/05 06:54:08;;;;;;;3.77;1.97;;;;;;;6.93;98.90;95389.84;5058323;28;20236;-64
2021/05/05 06:56:34;;;;;;;3.33;2.37;;;;;;;6.93;96.23;95389.03;5059411;28;20174;-63
2021/05/05 06:58:59;;;;;;;3.43;1.80;;;;;;;6.98;97.11;95394.38;5073185;28;20284;-65
2021/05/05 07:01:25;;;;;;;3.90;2.03;;;;;;;7.18;95.48;95403.47;5077040;28;20489;-66
2021/05/05 07:03:50;;;;;;;1.90;1.53;;;;;;;7.17;94.18;95404.47;5075185;28;20203;-65
2021/05/05 07:06:16;;;;;;;4.70;1.93;;;;;;;7.55;96.16;95393.56;5077253;28;20191;-71
2021/05/05 07:08:41;;;;;;;3.30;1.53;;;;;;;7.44;93.62;95396.19;5070867;28;20656;-70
2021/05/05 07:11:07;;;;;;;2.83;1.40;;;;;;;7.31;93.54;95407.66;5067083;28;20171;-64
2021/05/05 07:13:33;;;;;;;3.70;1.60;;;;;;;7.57;91.74;95396.72;5075998;28;20685;-64
2021/05/05 07:15:58;;;;;;;4.93;2.80;;;;;;;7.65;85.63;95388.50;5076739;28;20187;-65
2021/05/05 07:18:24;;;;;;;4.30;2.07;;;;;;;7.62;90.24;95401.25;5073211;28;20525;-64
2021/05/05 07:20:49;;;;;;;3.60;1.77;;;;;;;7.88;92.30;95404.13;5064323;28;20182;-65
2021/05/05 07:23:15;;;;;;;2.57;1.27;;;;;;;7.98;89.07;95401.72;5075857;28;20655;-63
2021/05/05 07:25:40;;;;;;;2.60;1.63;;;;;;;8.09;87.31;95411.34;5056936;28;20680;-64
2021/05/05 07:28:06;;;;;;;4.50;1.70;;;;;;;8.16;86.21;95408.59;5058226;28;20182;-70
2021/05/05 07:30:32;;;;;;;2.10;1.37;;;;;;;7.85;84.96;95415.06;5065695;28;20198;-70
2021/05/05 07:32:58;;;;;;;4.50;2.03;;;;;;;7.90;84.51;95423.00;5056539;28;20167;-64
2021/05/05 07:35:24;;;;;;;2.33;1.37;;;;;;;7.81;83.79;95429.63;5064426;28;20423;-64
2021/05/05 07:48:03;;;;;;;3.87;1.70;;;;;;;7.52;74.30;95446.25;5057396;28;20422;-70
2021/05/05 07:50:29;;;;;;;4.70;1.40;;;;;;;7.48;75.02;95454.81;5064662;28;20446;-70
2021/05/05 07:52:55;;;;;;;3.27;1.40;;;;;;;7.29;72.84;95459.34;5058228;28;20539;-70
2021/05/05 07:55:21;;;;;;;1.80;1.20;;;;;;;7.50;73.19;95458.75;5068357;28;20415;-70
2021/05/05 07:57:46;;;;;;;5.90;1.27;;;;;;;7.75;74.81;95458.53;5065034;28;20510;-70
2021/05/05 08:00:12;;;;;;;2.60;1.50;;;;;;;7.53;72.88;95465.34;5055547;28;20257;-69
2021/05/05 08:02:38;;;;;;;4.63;1.30;;;;;;;7.41;73.53;95459.34;5057031;28;20225;-70
2021/05/05 08:05:05;;;;;;;2.10;1.43;;;;;;;7.60;67.97;95463.41;5061097;28;20454;-63
2021/05/05 08:07:30;;;;;;;2.33;1.30;;;;;;;7.69;69.27;95452.38;5066477;28;20249;-70
2021/05/05 08:09:56;;;;;;;5.87;1.33;;;;;;;7.88;66.27;95451.19;5071495;28;20522;-65
2021/05/05 08:12:21;;;;;;;3.37;1.80;;;;;;;7.95;68.19;95456.31;5069455;28;20246;-65
2021/05/05 08:14:49;;;;;;;5.10;1.30;;;;;;;7.92;68.50;95444.50;5068339;28;20560;-67
2021/05/05 08:17:15;;;;;;;2.17;1.93;;;;;;;7.88;67.12;95453.03;5064387;28;20174;-68
2021/05/05 08:19:40;;;;;;;4.83;1.40;;;;;;;8.07;68.65;95454.47;5055680;28;20439;-66
2021/05/05 08:22:06;;;;;;;3.90;1.53;;;;;;;8.42;68.00;95456.97;5056557;28;20188;-67
2021/05/05 08:24:31;;;;;;;4.13;1.30;;;;;;;8.65;67.64;95462.91;5055511;28;20271;-68
2021/05/05 08:26:59;;;;;;;1.53;1.37;;;;;;;8.89;66.06;95464.38;5070970;28;20586;-65
2021/05/05 08:29:28;;;;;;;3.63;1.87;;;;;;;8.78;65.56;95461.81;5063527;28;20699;-66
2021/05/05 08:31:55;;;;;;;1.97;1.20;;;;;;;8.86;67.81;95466.69;5060754;28;20471;-68
2021/05/05 08:34:20;;;;;;;5.33;1.80;;;;;;;8.86;67.77;95459.59;5054041;28;20423;-69
2021/05/05 08:36:46;;;;;;;3.30;1.40;;;;;;;8.73;64.52;95465.13;5060532;28;20432;-66
2021/05/05 08:39:11;;;;;;;2.03;1.40;;;;;;;8.70;65.45;95467.41;5070596;28;20248;-62
2021/05/05 08:41:38;;;;;;;1.93;1.80;;;;;;;9.28;64.02;95458.19;5071882;28;20167;-70
2021/05/05 08:44:11;;;;;;;2.17;1.50;;;;;;;9.10;62.83;95455.00;5083812;28;20239;-65
2021/05/05 08:46:39;;;;;;;7.70;1.77;;;;;;;9.09;62.65;95456.84;5091877;28;20501;-74
2021/05/05 08:49:04;;;;;;;3.53;1.70;;;;;;;8.72;62.81;95479.25;5091474;28;20432;-69
2021/05/05 08:51:30;;;;;;;5.03;1.83;;;;;;;8.78;62.72;95467.84;5055225;28;20796;-66
2021/05/05 08:53:55;;;;;;;2.13;1.37;;;;;;;8.59;62.53;95473.53;5051727;28;20207;-67
2021/05/05 08:56:21;;;;;;;2.60;1.30;;;;;;;8.72;62.09;95476.63;5066062;28;20285;-66
2021/05/05 08:58:46;;;;;;;1.70;1.10;;;;;;;8.74;62.97;95471.16;5054011;28;20708;-67
2021/05/05 09:01:11;;;;;;;2.97;1.40;;;;;;;8.60;64.14;95465.44;5051397;28;20183;-67
2021/05/05 09:03:40;;;;;;;4.73;1.63;;;;;;;8.53;65.02;95456.94;5051189;28;20642;-65
2021/05/05 09:06:06;;;;;;;3.73;1.10;;;;;;;8.57;66.18;95468.50;5070468;28;20707;-66
2021/05/05 09:08:33;;;;;;;8.53;1.40;;;;;;;9.25;64.06;95463.09;5069893;28;20516;-68
2021/05/05 09:11:07;;;;;;;9.10;2.37;;;;;;;8.82;64.96;95465.56;5063729;28;20440;-67
2021/05/05 09:13:52;;;;;;;8.50;2.70;;;;;;;8.94;62.94;95466.28;5052134;28;20419;-67
2021/05/05 09:16:30;;;;;;;12.70;3.10;;;;;;;9.29;64.75;95472.84;5058015;28;20424;-67
2021/05/05 09:19:03;;;;;;;8.00;2.20;;;;;;;9.27;61.70;95461.84;5067327;28;20446;-68
2021/05/05 09:21:35;;;;;;;6.60;2.10;;;;;;;9.08;62.34;95480.63;5065971;28;20467;-68
2021/05/05 09:24:34;;;;;;;6.10;1.80;;;;;;;8.91;61.54;95485.88;5071037;28;20411;-67
2021/05/05 09:27:07;;;;;;;19.93;4.00;;;;;;;8.59;59.29;95486.63;5059215;28;20538;-68
2021/05/05 09:29:44;;;;;;;7.57;1.83;;;;;;;8.41;58.54;95492.06;5050909;28;20430;-67
2021/05/05 09:32:11;;;;;;;7.80;2.40;;;;;;;8.05;57.89;95498.34;5051330;28;20427;-68
2021/05/05 09:34:36;;;;;;;3.53;1.67;;;;;;;8.02;61.39;95501.44;5053128;28;20459;-68
2021/05/05 09:37:05;;;;;;;9.90;2.40;;;;;;;8.47;62.99;95491.91;5054921;28;20517;-66
2021/05/05 09:39:33;;;;;;;7.07;2.07;;;;;;;8.96;63.74;95482.53;5056673;28;20214;-68
2021/05/05 09:42:00;;;;;;;2.87;1.17;;;;;;;9.08;61.73;95480.63;5057923;28;20417;-69
2021/05/05 09:44:26;;;;;;;3.57;1.03;;;;;;;8.95;60.93;95480.97;5058131;28;20481;-67
2021/05/05 09:46:57;;;;;;;6.80;2.13;;;;;;;9.21;61.59;95480.34;5064133;28;20874;-68
2021/05/05 09:49:27;;;;;;;7.67;1.77;;;;;;;8.78;60.09;95482.75;5055115;28;22248;-68
2021/05/05 09:52:00;;;;;;;4.30;1.50;;;;;;;9.34;58.80;95480.81;5054585;28;20820;-67
2021/05/05 09:54:35;;;;;;;5.47;2.00;;;;;;;9.09;55.29;95483.03;5054743;28;20410;-67
2021/05/05 09:57:21;;;;;;;9.40;2.20;;;;;;;9.16;54.16;95480.25;5063951;28;20441;-69
2021/05/05 10:00:10;;;;;;;5.90;1.87;;;;;;;9.60;54.79;95479.34;5069818;28;20460;-68
2021/05/05 10:02:50;;;;;;;4.17;1.43;;;;;;;9.57;53.05;95477.22;5053761;28;20405;-66
2021/05/05 10:05:19;;;;;;;4.87;1.57;;;;;;;9.60;52.88;95473.31;5058664;28;20456;-68
2021/05/05 10:07:59;;;;;;;2.00;1.80;;;;;;;9.35;52.09;95485.00;5055267;28;20427;-68
2021/05/05 10:10:30;;;;;;;4.10;1.83;;;;;;;9.47;54.43;95484.13;5053633;28;20423;-68
2021/05/05 10:12:58;;;;;;;1.80;1.20;;;;;;;9.36;51.36;95496.31;5058956;28;20419;-65
2021/05/05 10:15:24;;;;;;;10.20;2.57;;;;;;;9.53;51.29;95507.56;5062295;28;20411;-68
2021/05/05 10:17:51;;;;;;;4.47;1.70;;;;;;;9.90;52.00;95492.09;5072573;28;20431;-68
2021/05/05 10:20:25;;;;;;;6.13;2.03;;;;;;;10.10;49.93;95482.69;5066356;28;20206;-66
2021/05/05 10:22:59;;;;;;;7.00;2.67;;;;;;;10.08;50.32;95486.53;5055298;28;20442;-68
2021/05/05 10:25:25;;;;;;;8.20;2.10;;;;;;;10.18;50.04;95502.47;5053400;28;20515;-68
2021/05/05 10:27:52;;;;;;;7.30;2.10;;;;;;;10.27;50.10;95491.28;5052838;28;20414;-66
2021/05/05 10:30:23;;;;;;;8.40;2.37;;;;;;;10.14;50.26;95496.91;5065016;28;20479;-68
2021/05/05 10:32:49;;;;;;;4.53;1.53;;;;;;;9.98;51.04;95518.69;5053052;28;20416;-71
2021/05/05 10:35:17;;;;;;;8.90;2.40;;;;;;;10.19;49.65;95504.84;5053277;28;20408;-66
2021/05/05 10:37:49;;;;;;;5.50;1.67;;;;;;;10.38;51.10;95503.47;5053737;28;20433;-69
2021/05/05 10:40:22;;;;;;;6.30;2.20;;;;;;;10.68;47.06;95507.47;5063239;28;20527;-68
2021/05/05 10:42:51;;;;;;;4.90;1.97;;;;;;;10.72;49.37;95506.75;5071550;28;20409;-67
2021/05/05 10:45:29;;;;;;;4.80;1.60;;;;;;;10.16;49.60;95523.69;5072935;28;20463;-66
2021/05/05 10:48:15;;;;;;;6.63;1.87;;;;;;;10.14;49.70;95519.72;5070901;28;20426;-67
2021/05/05 10:50:50;;;;;;;5.20;1.70;;;;;;;9.96;51.41;95547.03;5072721;28;20446;-66
2021/05/05 10:53:39;;;;;;;5.37;1.80;;;;;;;8.81;61.51;95579.19;5068495;28;20430;-66
2021/05/05 10:56:23;;;;;;;7.43;1.63;;;;;;;8.30;71.97;95622.69;5055008;28;20432;-66
2021/05/05 10:59:03;;;;;;;4.27;1.20;;;;;;;7.69;81.54;95653.69;5071668;28;20446;-68
2021/05/05 11:01:43;;;;;;;4.47;1.27;;;;;;;7.25;85.03;95688.09;5071828;28;20413;-67
2021/05/05 11:04:14;;;;;;;3.50;0.90;;;;;;;6.07;93.70;95684.19;5052916;28;20420;-66
2021/05/05 11:06:45;;;;;;;5.13;1.30;;;;;;;6.10;96.53;95690.78;5054304;28;20942;-68
2021/05/05 11:09:15;;;;;;;4.77;1.37;;;;;;;5.40;97.55;95710.09;5072338;28;20478;-68
2021/05/05 11:11:41;;;;;;;3.20;1.10;;;;;;;5.28;99.57;95695.34;5071153;28;20428;-68
2021/05/05 11:14:07;;;;;;;6.80;1.80;;;;;;;5.29;100.00;95687.31;5072909;28;20445;-68
2021/05/05 11:16:52;;;;;;;4.00;1.33;;;;;;;5.33;100.00;95719.75;5058483;28;20421;-66
2021/05/05 11:19:36;;;;;;;4.10;1.70;;;;;;;5.60;100.00;95704.78;5063642;28;20456;-68
2021/05/05 11:22:06;;;;;;;7.07;1.70;;;;;;;5.19;100.00;95702.63;5070092;28;20521;-68
2021/05/05 11:24:39;;;;;;;4.90;1.40;;;;;;;5.20;100.00;95689.38;5072114;28;20400;-69
2021/05/05 11:27:10;;;;;;;9.13;2.20;;;;;;;5.34;100.00;95695.34;5070754;28;20513;-67
2021/05/05 11:29:46;;;;;;;4.33;1.47;;;;;;;5.55;100.00;95691.59;5071548;28;20495;-67
2021/05/05 11:32:26;;;;;;;4.53;1.57;;;;;;;5.72;100.00;95692.69;5061991;28;20424;-69
2021/05/05 11:34:52;;;;;;;4.80;1.43;;;;;;;6.32;99.56;95688.59;5071133;28;20491;-63
2021/05/05 11:37:26;;;;;;;5.50;1.60;;;;;;;6.25;98.08;95680.81;5056062;28;20454;-67
2021/05/05 11:40:03;;;;;;;7.83;2.10;;;;;;;6.62;95.67;95684.25;5069172;28;21012;-67
2021/05/05 11:42:34;;;;;;;5.10;1.43;;;;;;;6.62;94.82;95687.66;5056600;28;20411;-67
2021/05/05 11:45:05;;;;;;;3.53;1.27;;;;;;;6.66;94.25;95694.03;5057199;28;20919;-67
2021/05/05 11:47:38;;;;;;;5.20;1.60;;;;;;;6.90;92.18;95695.75;5055608;28;20449;-68